createdAt,value
2019-03-24T00:00:21.706Z,59.13
2019-03-24T00:02:55.522Z,57.67
2019-03-24T00:05:28.061Z,55.67
2019-03-24T00:08:00.351Z,55.80
2019-03-24T00:10:32.674Z,55.03
2019-03-24T00:13:04.830Z,56.92
2019-03-24T00:15:37.108Z,54.42
2019-03-24T00:18:09.260Z,55.05
2019-03-24T00:20:41.397Z,57.62
2019-03-24T00:23:13.629Z,56.90
2019-03-24T00:25:45.873Z,53.95
2019-03-24T00:28:18.371Z,53.93
2019-03-24T00:30:50.789Z,54.50
2019-03-24T00:33:24.804Z,56.90
2019-03-24T00:35:57.849Z,55.07
2019-03-24T00:38:30.013Z,56.13
2019-03-24T00:41:02.277Z,54.65
2019-03-24T00:43:34.580Z,57.38
2019-03-24T00:46:06.876Z,57.27
2019-03-24T00:48:39.045Z,55.73
2019-03-24T00:51:11.232Z,56.85
2019-03-24T00:53:43.588Z,55.50
2019-03-24T00:56:15.568Z,56.00
2019-03-24T00:58:48.821Z,54.17
2019-03-24T01:01:21.159Z,59.38
2019-03-24T01:03:53.380Z,58.73
2019-03-24T01:06:25.649Z,57.58
2019-03-24T01:08:57.918Z,50.48
2019-03-24T01:11:30.265Z,51.53
2019-03-24T01:14:02.577Z,51.95
2019-03-24T01:16:34.812Z,52.73
2019-03-24T01:19:07.037Z,54.70
2019-03-24T01:21:39.206Z,60.95
2019-03-24T01:24:11.441Z,56.90
2019-03-24T01:26:43.765Z,56.33
2019-03-24T01:29:16.841Z,63.75
2019-03-24T01:31:48.978Z,56.50
2019-03-24T01:34:21.292Z,52.50
2019-03-24T01:36:53.705Z,53.85
2019-03-24T01:39:25.904Z,55.52
2019-03-24T01:41:58.141Z,60.48
2019-03-24T01:44:30.338Z,58.13
2019-03-24T01:47:02.527Z,54.95
2019-03-24T01:49:34.957Z,56.80
2019-03-24T01:52:07.217Z,54.18
2019-03-24T01:54:39.780Z,53.58
2019-03-24T01:57:12.261Z,52.50
2019-03-24T01:59:44.693Z,53.53
2019-03-24T02:02:17.117Z,50.58
2019-03-24T02:04:49.400Z,51.40
2019-03-24T02:07:21.950Z,50.20
2019-03-24T02:09:54.235Z,49.75
2019-03-24T02:12:27.613Z,48.75
2019-03-24T02:14:59.966Z,50.03
2019-03-24T02:17:32.266Z,52.93
2019-03-24T02:20:04.346Z,48.30
2019-03-24T02:22:36.602Z,48.08
2019-03-24T02:25:09.293Z,49.55
2019-03-24T02:27:41.763Z,47.53
2019-03-24T02:30:15.121Z,49.23
2019-03-24T02:32:47.544Z,48.58
2019-03-24T02:35:19.951Z,48.08
2019-03-24T02:37:52.620Z,48.42
2019-03-24T02:40:24.654Z,48.23
2019-03-24T02:42:56.928Z,48.78
2019-03-24T02:45:29.127Z,51.40
2019-03-24T02:48:01.463Z,48.00
2019-03-24T02:50:33.885Z,48.70
2019-03-24T02:53:06.320Z,48.33
2019-03-24T02:55:38.660Z,47.97
2019-03-24T02:58:11.079Z,48.38
2019-03-24T03:00:43.399Z,51.18
2019-03-24T03:03:15.647Z,49.70
2019-03-24T03:05:48.009Z,50.12
2019-03-24T03:08:20.416Z,47.75
2019-03-24T03:10:52.598Z,50.00
2019-03-24T03:13:24.973Z,49.95
2019-03-24T03:15:57.262Z,50.60
2019-03-24T03:18:30.351Z,51.68
2019-03-24T03:21:02.940Z,51.00
2019-03-24T03:23:35.186Z,51.27
2019-03-24T03:26:07.480Z,50.92
2019-03-24T03:28:39.855Z,52.05
2019-03-24T03:31:12.267Z,50.45
2019-03-24T03:33:44.649Z,48.70
2019-03-24T03:36:17.518Z,52.05
2019-03-24T03:38:49.937Z,53.63
2019-03-24T03:41:22.161Z,51.70
2019-03-24T03:43:54.555Z,52.07
2019-03-24T03:46:26.841Z,54.80
2019-03-24T03:48:59.113Z,52.85
2019-03-24T03:51:31.648Z,54.35
2019-03-24T03:54:04.219Z,51.50
2019-03-24T03:56:36.371Z,53.15
2019-03-24T03:59:08.572Z,55.50
2019-03-24T04:01:40.710Z,54.65
2019-03-24T04:04:13.002Z,56.18
2019-03-24T04:06:45.215Z,55.08
2019-03-24T04:09:18.326Z,51.37
2019-03-24T04:11:50.652Z,51.10
2019-03-24T04:14:23.100Z,56.42
2019-03-24T04:17:06.486Z,53.23
2019-03-24T04:19:29.507Z,54.30
2019-03-24T04:22:01.804Z,54.75
2019-03-24T04:24:34.040Z,53.15
2019-03-24T04:27:06.234Z,54.85
2019-03-24T04:29:38.556Z,53.35
2019-03-24T04:32:10.849Z,54.65
2019-03-24T04:34:43.107Z,54.58
2019-03-24T04:37:15.655Z,53.95
2019-03-24T04:39:48.024Z,53.73
2019-03-24T04:42:20.078Z,54.80
2019-03-24T04:44:52.334Z,54.10
2019-03-24T04:47:24.461Z,57.15
2019-03-24T04:49:56.719Z,54.35
2019-03-24T04:52:29.083Z,54.50
2019-03-24T04:55:01.499Z,54.88
2019-03-24T04:57:33.836Z,55.40
2019-03-24T05:00:08.443Z,54.90
2019-03-24T05:02:41.225Z,55.63
2019-03-24T05:05:13.586Z,54.53
2019-03-24T05:07:45.824Z,54.17
2019-03-24T05:10:20.776Z,55.90
2019-03-24T05:12:52.832Z,57.50
2019-03-24T05:15:26.637Z,65.17
2019-03-24T05:17:58.967Z,55.63
2019-03-24T05:20:31.269Z,56.08
2019-03-24T05:23:03.616Z,56.58
2019-03-24T05:25:35.850Z,57.00
2019-03-24T05:28:08.227Z,53.02
2019-03-24T05:30:40.542Z,54.75
2019-03-24T05:33:12.612Z,55.60
2019-03-24T05:35:46.133Z,56.53
2019-03-24T05:38:18.665Z,55.70
2019-03-24T05:40:51.725Z,55.83
2019-03-24T05:43:26.840Z,55.17
2019-03-24T05:45:59.022Z,58.37
2019-03-24T05:48:31.359Z,55.35
2019-03-24T05:51:03.544Z,56.65
2019-03-24T05:53:36.820Z,55.20
2019-03-24T05:56:08.984Z,55.25
2019-03-24T05:58:41.398Z,55.73
2019-03-24T06:01:13.765Z,56.13
2019-03-24T06:03:45.912Z,56.23
2019-03-24T06:06:18.151Z,54.55
2019-03-24T06:08:50.279Z,54.83
2019-03-24T06:11:23.173Z,54.50
2019-03-24T06:13:55.826Z,58.02
2019-03-24T06:16:28.206Z,56.83
2019-03-24T06:19:00.512Z,54.38
2019-03-24T06:21:32.677Z,55.10
2019-03-24T06:24:04.819Z,56.40
2019-03-24T06:26:37.037Z,55.13
2019-03-24T06:29:09.174Z,55.52
2019-03-24T06:31:41.493Z,57.98
2019-03-24T06:34:13.831Z,54.03
2019-03-24T06:36:46.088Z,54.50
2019-03-24T06:39:18.543Z,55.03
2019-03-24T06:41:51.046Z,54.63
2019-03-24T06:44:23.169Z,54.05
2019-03-24T06:46:55.374Z,53.73
2019-03-24T06:49:27.793Z,53.78
2019-03-24T06:51:59.987Z,53.05
2019-03-24T06:54:32.152Z,53.65
2019-03-24T06:57:04.361Z,56.05
2019-03-24T06:59:36.607Z,52.73
2019-03-24T07:02:08.781Z,54.73
2019-03-24T07:04:41.064Z,55.12
2019-03-24T07:07:13.285Z,53.07
2019-03-24T07:09:45.679Z,55.00
2019-03-24T07:12:18.419Z,53.98
2019-03-24T07:14:50.609Z,54.05
2019-03-24T07:17:22.983Z,52.48
2019-03-24T07:19:55.293Z,53.87
2019-03-24T07:22:27.735Z,52.98
2019-03-24T07:24:59.885Z,52.38
2019-03-24T07:27:32.227Z,54.25
2019-03-24T07:30:04.680Z,55.03
2019-03-24T07:32:36.912Z,53.47
2019-03-24T07:35:11.017Z,54.03
2019-03-24T07:37:43.336Z,53.85
2019-03-24T07:40:16.173Z,54.53
2019-03-24T07:42:48.801Z,53.25
2019-03-24T07:45:20.992Z,54.10
2019-03-24T07:47:53.676Z,52.03
2019-03-24T07:50:25.986Z,52.93
2019-03-24T07:52:58.251Z,52.88
2019-03-24T07:55:30.391Z,52.88
2019-03-24T07:58:02.758Z,51.53
2019-03-24T08:00:36.595Z,51.30
2019-03-24T08:03:08.974Z,51.03
2019-03-24T08:05:41.225Z,52.50
2019-03-24T08:08:13.586Z,55.12
2019-03-24T08:10:45.745Z,60.45
2019-03-24T08:13:18.188Z,51.88
2019-03-24T08:15:50.363Z,50.48
2019-03-24T08:18:29.801Z,57.30
2019-03-24T08:20:56.075Z,54.10
2019-03-24T08:23:28.280Z,59.67
2019-03-24T08:26:00.496Z,57.73
2019-03-24T08:28:32.790Z,54.67
2019-03-24T08:31:04.954Z,50.17
2019-03-24T08:33:37.190Z,50.38
2019-03-24T08:36:09.456Z,49.48
2019-03-24T08:38:41.764Z,50.05
2019-03-24T08:41:14.420Z,51.63
2019-03-24T08:43:46.918Z,51.77
2019-03-24T08:46:19.148Z,56.37
2019-03-24T08:48:51.736Z,65.47
2019-03-24T08:51:24.216Z,49.07
2019-03-24T08:53:56.638Z,49.03
2019-03-24T08:56:28.895Z,48.92
2019-03-24T08:59:01.378Z,57.73
2019-03-24T09:01:34.537Z,52.38
2019-03-24T09:04:07.196Z,54.95
2019-03-24T09:06:39.607Z,52.33
2019-03-24T09:09:11.692Z,51.37
2019-03-24T09:11:43.800Z,56.18
2019-03-24T09:14:16.192Z,53.10
2019-03-24T09:16:48.301Z,49.67
2019-03-24T09:19:20.470Z,51.70
2019-03-24T09:21:52.653Z,49.00
2019-03-24T09:24:24.986Z,48.35
2019-03-24T09:26:57.321Z,48.67
2019-03-24T09:29:29.672Z,52.73
2019-03-24T09:32:02.057Z,49.00
2019-03-24T09:34:34.437Z,47.30
2019-03-24T09:37:06.652Z,48.58
2019-03-24T09:39:40.307Z,46.25
2019-03-24T09:42:12.741Z,65.47
2019-03-24T09:44:45.400Z,51.20
2019-03-24T09:47:17.716Z,50.15
2019-03-24T09:49:49.988Z,47.90
2019-03-24T09:52:22.302Z,47.93
2019-03-24T09:54:54.740Z,47.00
2019-03-24T09:57:26.951Z,46.35
2019-03-24T09:59:59.425Z,49.05
2019-03-24T10:02:31.959Z,46.48
2019-03-24T10:05:04.329Z,46.15
2019-03-24T10:07:36.609Z,45.80
2019-03-24T10:10:09.493Z,46.63
2019-03-24T10:12:41.704Z,46.25
2019-03-24T10:15:14.358Z,52.23
2019-03-24T10:17:46.864Z,48.38
2019-03-24T10:20:19.154Z,48.35
2019-03-24T10:22:51.343Z,46.75
2019-03-24T10:25:23.613Z,45.75
2019-03-24T10:27:55.781Z,49.48
2019-03-24T10:30:28.074Z,50.15
2019-03-24T10:33:00.357Z,46.80
2019-03-24T10:35:32.679Z,55.38
2019-03-24T10:38:05.112Z,48.90
2019-03-24T10:40:37.590Z,49.08
2019-03-24T10:43:11.100Z,47.15
2019-03-24T10:45:43.731Z,51.75
2019-03-24T10:48:16.061Z,53.17
2019-03-24T10:50:48.425Z,47.87
2019-03-24T10:53:20.557Z,48.40
2019-03-24T10:55:52.635Z,52.45
2019-03-24T10:58:24.741Z,51.60
2019-03-24T11:00:57.091Z,58.42
2019-03-24T11:03:29.206Z,50.63
2019-03-24T11:06:01.399Z,81.17
2019-03-24T11:08:33.720Z,52.73
2019-03-24T11:11:06.094Z,54.95
2019-03-24T11:13:39.282Z,53.55
2019-03-24T11:16:11.954Z,52.03
2019-03-24T11:18:44.160Z,54.10
2019-03-24T11:21:16.318Z,49.87
2019-03-24T11:23:48.509Z,53.78
2019-03-24T11:26:21.853Z,54.25
2019-03-24T11:28:54.098Z,51.25
2019-03-24T11:31:26.330Z,63.98
2019-03-24T11:33:58.982Z,56.37
2019-03-24T11:36:31.242Z,52.62
2019-03-24T11:39:03.388Z,51.70
2019-03-24T11:41:35.683Z,53.50
2019-03-24T11:44:08.226Z,53.85
2019-03-24T11:46:40.537Z,52.50
2019-03-24T11:49:15.208Z,52.50
2019-03-24T11:51:47.943Z,57.23
2019-03-24T11:54:21.224Z,54.38
2019-03-24T11:56:53.713Z,59.17
2019-03-24T11:59:25.940Z,55.33
2019-03-24T12:01:58.174Z,52.48
2019-03-24T12:04:30.420Z,55.70
2019-03-24T12:07:02.681Z,82.55
2019-03-24T12:09:35.100Z,56.33
2019-03-24T12:12:07.312Z,56.65
2019-03-24T12:14:39.698Z,57.53
2019-03-24T12:17:11.931Z,54.67
2019-03-24T12:19:44.063Z,54.90
2019-03-24T12:22:16.256Z,56.60
2019-03-24T12:24:48.334Z,65.95
2019-03-24T12:27:21.033Z,67.55
2019-03-24T12:29:53.310Z,60.63
2019-03-24T12:32:26.590Z,57.58
2019-03-24T12:34:59.184Z,57.83
2019-03-24T12:37:31.680Z,59.30
2019-03-24T12:40:03.949Z,80.70
2019-03-24T12:42:36.290Z,63.45
2019-03-24T12:45:10.526Z,72.58
2019-03-24T12:47:42.950Z,62.20
2019-03-24T12:50:16.576Z,68.28
2019-03-24T12:52:48.989Z,71.05
2019-03-24T12:55:21.102Z,72.32
2019-03-24T12:57:53.409Z,61.92
2019-03-24T13:00:28.169Z,70.57
2019-03-24T13:03:00.538Z,79.05
2019-03-24T13:05:32.892Z,104.47
2019-03-24T13:08:08.005Z,76.90
2019-03-24T13:10:40.385Z,64.50
2019-03-24T13:13:13.364Z,64.42
2019-03-24T13:15:45.692Z,61.70
2019-03-24T13:18:18.173Z,66.65
2019-03-24T13:20:51.806Z,62.65
2019-03-24T13:23:24.205Z,62.17
2019-03-24T13:25:56.445Z,63.30
2019-03-24T13:28:28.814Z,62.33
2019-03-24T13:31:01.186Z,61.37
2019-03-24T13:33:33.592Z,64.87
2019-03-24T13:36:06.935Z,63.28
2019-03-24T13:38:39.241Z,60.80
2019-03-24T13:41:11.408Z,68.12
2019-03-24T13:43:44.787Z,81.60
2019-03-24T13:46:17.359Z,71.12
2019-03-24T13:48:49.828Z,63.42
2019-03-24T13:51:22.105Z,100.97
2019-03-24T13:53:54.469Z,69.05
2019-03-24T13:56:26.714Z,64.97
2019-03-24T13:58:58.906Z,64.72
2019-03-24T14:01:32.570Z,64.53
2019-03-24T14:04:04.703Z,62.65
2019-03-24T14:06:37.066Z,64.25
2019-03-24T14:09:11.584Z,64.40
2019-03-24T14:11:43.954Z,67.13
2019-03-24T14:14:16.512Z,65.70
2019-03-24T14:16:48.733Z,65.40
2019-03-24T14:19:22.085Z,64.82
2019-03-24T14:21:54.404Z,64.92
2019-03-24T14:24:26.803Z,83.95
2019-03-24T14:26:59.047Z,76.47
2019-03-24T14:29:31.298Z,71.77
2019-03-24T14:32:03.341Z,70.67
2019-03-24T14:34:35.762Z,66.90
2019-03-24T14:37:07.839Z,93.22
2019-03-24T14:39:40.043Z,98.00
2019-03-24T14:42:12.264Z,69.42
2019-03-24T14:44:44.565Z,63.90
2019-03-24T14:47:17.039Z,64.45
2019-03-24T14:49:49.555Z,65.42
2019-03-24T14:52:21.787Z,58.20
2019-03-24T14:54:54.069Z,59.77
2019-03-24T14:57:26.437Z,59.38
2019-03-24T14:59:58.934Z,58.57
2019-03-24T15:02:31.284Z,60.08
2019-03-24T15:05:03.752Z,66.45
2019-03-24T15:07:36.151Z,55.30
2019-03-24T15:10:08.984Z,54.58
2019-03-24T15:12:41.031Z,55.10
2019-03-24T15:15:13.169Z,55.90
2019-03-24T15:17:45.208Z,55.95
2019-03-24T15:20:17.585Z,52.85
2019-03-24T15:22:49.759Z,51.45
2019-03-24T15:25:21.965Z,49.70
2019-03-24T15:27:54.239Z,60.38
2019-03-24T15:30:26.370Z,57.88
2019-03-24T15:32:58.537Z,55.70
2019-03-24T15:35:30.743Z,56.37
2019-03-24T15:38:08.466Z,64.37
2019-03-24T15:40:36.707Z,47.48
2019-03-24T15:43:09.018Z,54.45
2019-03-24T15:45:41.696Z,48.08
2019-03-24T15:48:14.203Z,46.80
2019-03-24T15:50:46.650Z,47.23
2019-03-24T15:53:18.912Z,46.30
2019-03-24T15:55:51.311Z,45.33
2019-03-24T15:58:23.559Z,45.55
2019-03-24T16:00:56.073Z,51.37
2019-03-24T16:03:28.282Z,56.20
2019-03-24T16:06:00.387Z,63.42
2019-03-24T16:08:32.562Z,51.03
2019-03-24T16:11:04.962Z,45.88
2019-03-24T16:13:37.239Z,47.03
2019-03-24T16:16:09.626Z,48.15
2019-03-24T16:18:41.846Z,67.62
2019-03-24T16:21:14.062Z,47.83
2019-03-24T16:23:46.214Z,57.35
2019-03-24T16:26:19.508Z,55.40
2019-03-24T16:28:51.699Z,47.05
2019-03-24T16:31:24.197Z,47.65
2019-03-24T16:33:57.581Z,46.55
2019-03-24T16:36:29.943Z,47.38
2019-03-24T16:39:03.720Z,45.55
2019-03-24T16:41:35.858Z,46.70
2019-03-24T16:44:08.119Z,47.30
2019-03-24T16:46:40.419Z,47.80
2019-03-24T16:49:13.054Z,47.03
2019-03-24T16:51:45.379Z,47.08
2019-03-24T16:54:17.627Z,60.43
2019-03-24T16:56:50.002Z,53.30
2019-03-24T16:59:22.233Z,55.85
2019-03-24T17:01:54.436Z,49.20
2019-03-24T17:04:26.607Z,50.38
2019-03-24T17:06:58.998Z,46.87
2019-03-24T17:09:31.278Z,47.95
2019-03-24T17:12:03.537Z,50.10
2019-03-24T17:14:35.745Z,47.53
2019-03-24T17:17:08.027Z,47.50
2019-03-24T17:19:40.187Z,50.00
2019-03-24T17:22:12.582Z,47.67
2019-03-24T17:24:44.843Z,48.60
2019-03-24T17:27:16.974Z,51.33
2019-03-24T17:29:49.253Z,57.83
2019-03-24T17:32:21.860Z,58.85
2019-03-24T17:34:53.920Z,53.17
2019-03-24T17:37:26.169Z,50.03
2019-03-24T17:39:58.398Z,47.45
2019-03-24T17:42:30.562Z,47.62
2019-03-24T17:45:02.819Z,48.78
2019-03-24T17:47:35.274Z,48.50
2019-03-24T17:50:08.917Z,58.75
2019-03-24T17:52:41.240Z,50.92
2019-03-24T17:55:13.496Z,49.73
2019-03-24T17:57:46.019Z,51.33
2019-03-24T18:00:22.120Z,51.23
2019-03-24T18:02:54.498Z,52.53
2019-03-24T18:05:28.300Z,51.25
2019-03-24T18:08:00.584Z,52.57
2019-03-24T18:10:32.766Z,50.45
2019-03-24T18:13:05.091Z,51.88
2019-03-24T18:15:37.401Z,51.70
2019-03-24T18:18:09.611Z,54.58
2019-03-24T18:20:41.710Z,69.70
2019-03-24T18:23:14.595Z,74.45
2019-03-24T18:25:46.941Z,81.85
2019-03-24T18:28:19.263Z,73.07
2019-03-24T18:30:51.491Z,71.17
2019-03-24T18:33:23.673Z,63.30
2019-03-24T18:35:55.929Z,66.37
2019-03-24T18:38:28.267Z,55.17
2019-03-24T18:41:00.336Z,56.40
2019-03-24T18:43:32.443Z,54.42
2019-03-24T18:46:04.794Z,52.70
2019-03-24T18:48:37.218Z,51.60
2019-03-24T18:51:10.063Z,51.37
2019-03-24T18:53:42.524Z,55.83
2019-03-24T18:56:14.819Z,50.73
2019-03-24T18:58:47.284Z,52.15
2019-03-24T19:01:19.757Z,51.58
2019-03-24T19:03:52.229Z,55.83
2019-03-24T19:06:24.470Z,67.53
2019-03-24T19:08:56.540Z,68.23
2019-03-24T19:11:28.854Z,51.13
2019-03-24T19:14:01.183Z,51.80
2019-03-24T19:16:33.315Z,51.55
2019-03-24T19:19:05.665Z,50.23
2019-03-24T19:21:37.977Z,47.93
2019-03-24T19:24:10.404Z,51.23
2019-03-24T19:26:42.743Z,43.58
2019-03-24T19:29:15.161Z,46.23
2019-03-24T19:31:47.511Z,42.20
2019-03-24T19:34:19.947Z,49.60
2019-03-24T19:36:52.274Z,42.67
2019-03-24T19:39:24.531Z,43.17
2019-03-24T19:41:56.952Z,43.70
2019-03-24T19:44:29.593Z,39.83
2019-03-24T19:47:01.859Z,41.30
2019-03-24T19:49:34.080Z,39.00
2019-03-24T19:52:06.570Z,40.25
2019-03-24T19:54:39.092Z,42.78
2019-03-24T19:57:11.404Z,89.22
2019-03-24T19:59:43.483Z,38.75
2019-03-24T20:02:16.600Z,44.80
2019-03-24T20:04:48.947Z,40.50
2019-03-24T20:07:21.329Z,40.90
2019-03-24T20:09:53.578Z,38.83
2019-03-24T20:12:25.559Z,43.65
2019-03-24T20:14:57.831Z,48.00
2019-03-24T20:17:30.147Z,44.65
2019-03-24T20:20:02.416Z,42.10
2019-03-24T20:22:34.620Z,41.42
2019-03-24T20:25:08.337Z,41.90
2019-03-24T20:27:40.472Z,41.83
2019-03-24T20:30:14.141Z,85.57
2019-03-24T20:32:46.461Z,73.90
2019-03-24T20:35:18.631Z,42.62
2019-03-24T20:37:50.678Z,51.35
2019-03-24T20:40:22.862Z,52.67
2019-03-24T20:42:55.202Z,43.98
2019-03-24T20:45:27.542Z,43.83
2019-03-24T20:47:59.751Z,45.23
2019-03-24T20:50:31.986Z,45.35
2019-03-24T20:53:17.343Z,50.73
2019-03-24T20:55:38.391Z,64.27
2019-03-24T20:58:10.823Z,47.00
2019-03-24T21:00:43.194Z,51.90
2019-03-24T21:03:16.657Z,47.70
2019-03-24T21:05:48.860Z,47.23
2019-03-24T21:08:21.023Z,50.43
2019-03-24T21:10:53.254Z,50.80
2019-03-24T21:13:26.202Z,53.20
2019-03-24T21:15:58.689Z,57.00
2019-03-24T21:18:30.955Z,66.02
2019-03-24T21:21:03.252Z,54.73
2019-03-24T21:23:35.316Z,48.17
2019-03-24T21:26:07.733Z,54.90
2019-03-24T21:28:39.915Z,51.28
2019-03-24T21:31:12.167Z,51.90
2019-03-24T21:33:44.464Z,54.38
2019-03-24T21:36:16.707Z,64.55
2019-03-24T21:38:48.846Z,52.50
2019-03-24T21:41:21.342Z,60.88
2019-03-24T21:43:54.324Z,59.25
2019-03-24T21:46:26.878Z,53.63
2019-03-24T21:48:59.258Z,53.13
2019-03-24T21:51:31.669Z,55.83
2019-03-24T21:54:04.131Z,53.83
2019-03-24T21:56:36.484Z,58.40
2019-03-24T21:59:08.712Z,56.90
2019-03-24T22:01:41.938Z,60.43
2019-03-24T22:04:14.140Z,57.08
2019-03-24T22:06:46.525Z,53.58
2019-03-24T22:09:18.636Z,51.95
2019-03-24T22:11:50.769Z,51.00
2019-03-24T22:14:23.027Z,54.58
2019-03-24T22:16:55.413Z,57.15
2019-03-24T22:19:27.664Z,52.25
2019-03-24T22:21:59.907Z,56.33
2019-03-24T22:24:32.298Z,59.08
2019-03-24T22:27:04.632Z,54.23
2019-03-24T22:29:36.992Z,55.95
2019-03-24T22:32:09.388Z,59.88
2019-03-24T22:34:41.761Z,55.90
2019-03-24T22:37:16.165Z,55.95
2019-03-24T22:39:47.599Z,58.17
2019-03-24T22:42:19.930Z,57.08
2019-03-24T22:44:52.270Z,55.67
2019-03-24T22:47:24.522Z,54.80
2019-03-24T22:49:56.648Z,61.15
2019-03-24T22:52:28.887Z,56.68
2019-03-24T22:55:01.563Z,59.88
2019-03-24T22:57:34.901Z,57.40
2019-03-24T23:00:12.232Z,60.17
2019-03-24T23:02:45.423Z,63.97
2019-03-24T23:05:17.583Z,61.98
2019-03-24T23:07:51.048Z,63.25
2019-03-24T23:10:23.361Z,61.53
2019-03-24T23:12:55.632Z,62.53
2019-03-24T23:15:27.959Z,67.10
2019-03-24T23:18:00.483Z,64.45
2019-03-24T23:20:32.919Z,86.40
2019-03-24T23:23:05.146Z,60.92
2019-03-24T23:25:37.311Z,60.43
2019-03-24T23:28:09.874Z,61.98
2019-03-24T23:30:42.211Z,63.90
2019-03-24T23:33:14.738Z,63.07
2019-03-24T23:35:46.847Z,66.05
2019-03-24T23:38:18.923Z,63.45
2019-03-24T23:40:51.179Z,61.02
2019-03-24T23:43:25.022Z,62.05
2019-03-24T23:45:57.525Z,63.13
2019-03-24T23:48:29.859Z,64.25
2019-03-24T23:51:03.166Z,66.70
2019-03-24T23:53:35.556Z,69.45
2019-03-24T23:56:08.262Z,70.08
2019-03-24T23:58:41.367Z,87.15
